sensor_id;sensor_type;location;lat;lon;timestamp;P1;durP1;ratioP1;P2;durP2;ratioP2
14665;SDS011;7420;53.574;10.040;2023-07-13T00:01:42;4.40;;;4.20;;
14665;SDS011;7420;53.574;10.040;2023-07-13T00:04:08;4.30;;;4.10;;
14665;SDS011;7420;53.574;10.040;2023-07-13T00:06:33;4.28;;;4.07;;
14665;SDS011;7420;53.574;10.040;2023-07-13T00:09:00;4.30;;;4.10;;
14665;SDS011;7420;53.574;10.040;2023-07-13T00:11:26;4.47;;;4.28;;
14665;SDS011;7420;53.574;10.040;2023-07-13T00:13:52;4.20;;;4.00;;
14665;SDS011;7420;53.574;10.040;2023-07-13T00:16:17;4.20;;;4.03;;
14665;SDS011;7420;53.574;10.040;2023-07-13T00:18:44;4.30;;;4.10;;
14665;SDS011;7420;53.574;10.040;2023-07-13T00:21:10;4.50;;;4.30;;
14665;SDS011;7420;53.574;10.040;2023-07-13T00:23:37;4.50;;;4.30;;
14665;SDS011;7420;53.574;10.040;2023-07-13T00:26:05;4.30;;;4.10;;
14665;SDS011;7420;53.574;10.040;2023-07-13T00:28:31;4.55;;;4.35;;
14665;SDS011;7420;53.574;10.040;2023-07-13T00:30:58;4.30;;;4.10;;
14665;SDS011;7420;53.574;10.040;2023-07-13T00:33:23;4.40;;;4.20;;
14665;SDS011;7420;53.574;10.040;2023-07-13T00:35:49;4.40;;;4.20;;
14665;SDS011;7420;53.574;10.040;2023-07-13T00:38:15;4.63;;;4.43;;
14665;SDS011;7420;53.574;10.040;2023-07-13T00:40:40;4.20;;;4.00;;
14665;SDS011;7420;53.574;10.040;2023-07-13T00:43:11;4.32;;;4.13;;
14665;SDS011;7420;53.574;10.040;2023-07-13T00:48:10;4.60;;;4.40;;
14665;SDS011;7420;53.574;10.040;2023-07-13T00:50:37;4.68;;;4.47;;
14665;SDS011;7420;53.574;10.040;2023-07-13T00:53:04;4.40;;;4.20;;
14665;SDS011;7420;53.574;10.040;2023-07-13T00:55:29;4.28;;;4.07;;
14665;SDS011;7420;53.574;10.040;2023-07-13T00:57:55;4.30;;;4.10;;
14665;SDS011;7420;53.574;10.040;2023-07-13T01:00:20;4.53;;;4.32;;
14665;SDS011;7420;53.574;10.040;2023-07-13T01:02:47;4.20;;;4.00;;
14665;SDS011;7420;53.574;10.040;2023-07-13T01:05:14;4.20;;;4.00;;
14665;SDS011;7420;53.574;10.040;2023-07-13T01:07:44;4.40;;;4.20;;
14665;SDS011;7420;53.574;10.040;2023-07-13T01:10:13;4.50;;;4.30;;
14665;SDS011;7420;53.574;10.040;2023-07-13T01:12:38;4.68;;;4.47;;
14665;SDS011;7420;53.574;10.040;2023-07-13T01:15:04;4.60;;;4.40;;
14665;SDS011;7420;53.574;10.040;2023-07-13T01:17:30;4.40;;;4.20;;
14665;SDS011;7420;53.574;10.040;2023-07-13T01:19:59;4.50;;;4.30;;
14665;SDS011;7420;53.574;10.040;2023-07-13T01:22:25;4.45;;;4.25;;
14665;SDS011;7420;53.574;10.040;2023-07-13T01:24:52;4.55;;;4.35;;
14665;SDS011;7420;53.574;10.040;2023-07-13T01:27:22;4.30;;;4.10;;
14665;SDS011;7420;53.574;10.040;2023-07-13T01:29:50;4.63;;;4.43;;
14665;SDS011;7420;53.574;10.040;2023-07-13T01:32:19;4.60;;;4.40;;
14665;SDS011;7420;53.574;10.040;2023-07-13T01:34:49;4.30;;;4.10;;
14665;SDS011;7420;53.574;10.040;2023-07-13T01:37:19;4.45;;;4.25;;
14665;SDS011;7420;53.574;10.040;2023-07-13T01:39:45;4.65;;;4.45;;
14665;SDS011;7420;53.574;10.040;2023-07-13T01:42:11;4.50;;;4.30;;
14665;SDS011;7420;53.574;10.040;2023-07-13T01:44:37;4.40;;;4.20;;
14665;SDS011;7420;53.574;10.040;2023-07-13T01:47:02;4.72;;;4.53;;
14665;SDS011;7420;53.574;10.040;2023-07-13T01:49:28;4.60;;;4.40;;
14665;SDS011;7420;53.574;10.040;2023-07-13T01:51:53;4.55;;;4.35;;
14665;SDS011;7420;53.574;10.040;2023-07-13T01:54:18;4.40;;;4.20;;
14665;SDS011;7420;53.574;10.040;2023-07-13T01:56:44;4.78;;;4.57;;
14665;SDS011;7420;53.574;10.040;2023-07-13T01:59:09;4.60;;;4.40;;
14665;SDS011;7420;53.574;10.040;2023-07-13T02:01:34;4.40;;;4.20;;
14665;SDS011;7420;53.574;10.040;2023-07-13T02:04:00;4.40;;;4.20;;
14665;SDS011;7420;53.574;10.040;2023-07-13T02:06:25;4.50;;;4.30;;
14665;SDS011;7420;53.574;10.040;2023-07-13T02:08:51;4.50;;;4.30;;
14665;SDS011;7420;53.574;10.040;2023-07-13T02:11:16;4.40;;;4.20;;
14665;SDS011;7420;53.574;10.040;2023-07-13T02:13:42;4.40;;;4.20;;
14665;SDS011;7420;53.574;10.040;2023-07-13T02:16:07;4.30;;;4.10;;
14665;SDS011;7420;53.574;10.040;2023-07-13T02:18:32;4.53;;;4.32;;
14665;SDS011;7420;53.574;10.040;2023-07-13T02:20:58;4.60;;;4.40;;
14665;SDS011;7420;53.574;10.040;2023-07-13T02:23:23;4.43;;;4.22;;
14665;SDS011;7420;53.574;10.040;2023-07-13T02:25:48;4.30;;;4.10;;
14665;SDS011;7420;53.574;10.040;2023-07-13T02:28:14;4.60;;;4.40;;
14665;SDS011;7420;53.574;10.040;2023-07-13T02:30:39;4.50;;;4.30;;
14665;SDS011;7420;53.574;10.040;2023-07-13T02:33:05;4.30;;;4.10;;
14665;SDS011;7420;53.574;10.040;2023-07-13T02:35:30;4.60;;;4.40;;
14665;SDS011;7420;53.574;10.040;2023-07-13T02:37:56;4.60;;;4.40;;
14665;SDS011;7420;53.574;10.040;2023-07-13T02:40:21;4.55;;;4.35;;
14665;SDS011;7420;53.574;10.040;2023-07-13T02:42:47;4.60;;;4.40;;
14665;SDS011;7420;53.574;10.040;2023-07-13T02:45:12;4.70;;;4.50;;
14665;SDS011;7420;53.574;10.040;2023-07-13T02:47:39;4.40;;;4.20;;
14665;SDS011;7420;53.574;10.040;2023-07-13T02:50:05;4.70;;;4.50;;
14665;SDS011;7420;53.574;10.040;2023-07-13T02:52:31;4.55;;;4.35;;
14665;SDS011;7420;53.574;10.040;2023-07-13T02:54:56;4.70;;;4.50;;
14665;SDS011;7420;53.574;10.040;2023-07-13T02:57:22;4.50;;;4.30;;
14665;SDS011;7420;53.574;10.040;2023-07-13T02:59:47;4.50;;;4.30;;
14665;SDS011;7420;53.574;10.040;2023-07-13T03:02:12;4.45;;;4.25;;
14665;SDS011;7420;53.574;10.040;2023-07-13T03:04:38;4.50;;;4.30;;
14665;SDS011;7420;53.574;10.040;2023-07-13T03:07:06;4.50;;;4.30;;
14665;SDS011;7420;53.574;10.040;2023-07-13T03:09:32;4.80;;;4.60;;
14665;SDS011;7420;53.574;10.040;2023-07-13T03:11:59;4.30;;;4.10;;
14665;SDS011;7420;53.574;10.040;2023-07-13T03:14:24;4.85;;;4.65;;
14665;SDS011;7420;53.574;10.040;2023-07-13T03:16:49;4.40;;;4.20;;
14665;SDS011;7420;53.574;10.040;2023-07-13T03:19:15;4.63;;;4.43;;
14665;SDS011;7420;53.574;10.040;2023-07-13T03:21:40;4.60;;;4.40;;
14665;SDS011;7420;53.574;10.040;2023-07-13T03:24:06;4.30;;;4.10;;
14665;SDS011;7420;53.574;10.040;2023-07-13T03:26:32;4.50;;;4.30;;
14665;SDS011;7420;53.574;10.040;2023-07-13T03:28:57;4.60;;;4.40;;
14665;SDS011;7420;53.574;10.040;2023-07-13T03:31:24;4.50;;;4.30;;
14665;SDS011;7420;53.574;10.040;2023-07-13T03:33:53;4.57;;;4.38;;
14665;SDS011;7420;53.574;10.040;2023-07-13T03:36:20;4.40;;;4.20;;
14665;SDS011;7420;53.574;10.040;2023-07-13T03:38:48;4.60;;;4.40;;
14665;SDS011;7420;53.574;10.040;2023-07-13T03:41:21;4.80;;;4.60;;
14665;SDS011;7420;53.574;10.040;2023-07-13T03:43:47;4.57;;;4.38;;
14665;SDS011;7420;53.574;10.040;2023-07-13T03:46:13;4.50;;;4.30;;
14665;SDS011;7420;53.574;10.040;2023-07-13T03:48:40;4.63;;;4.43;;
14665;SDS011;7420;53.574;10.040;2023-07-13T03:51:10;4.50;;;4.30;;
14665;SDS011;7420;53.574;10.040;2023-07-13T03:53:38;4.90;;;4.70;;
14665;SDS011;7420;53.574;10.040;2023-07-13T03:56:04;4.60;;;4.40;;
14665;SDS011;7420;53.574;10.040;2023-07-13T04:00:58;4.53;;;4.32;;
14665;SDS011;7420;53.574;10.040;2023-07-13T04:03:24;4.60;;;4.40;;
14665;SDS011;7420;53.574;10.040;2023-07-13T04:05:50;4.50;;;4.30;;
14665;SDS011;7420;53.574;10.040;2023-07-13T04:08:16;4.60;;;4.40;;
14665;SDS011;7420;53.574;10.040;2023-07-13T04:10:42;4.40;;;4.20;;
14665;SDS011;7420;53.574;10.040;2023-07-13T04:13:08;4.43;;;4.22;;
14665;SDS011;7420;53.574;10.040;2023-07-13T04:15:33;4.50;;;4.30;;
14665;SDS011;7420;53.574;10.040;2023-07-13T04:17:59;4.72;;;4.53;;
14665;SDS011;7420;53.574;10.040;2023-07-13T04:20:24;4.80;;;4.60;;
14665;SDS011;7420;53.574;10.040;2023-07-13T04:22:51;4.60;;;4.40;;
14665;SDS011;7420;53.574;10.040;2023-07-13T04:25:18;4.50;;;4.30;;
14665;SDS011;7420;53.574;10.040;2023-07-13T04:27:44;4.75;;;4.55;;
14665;SDS011;7420;53.574;10.040;2023-07-13T04:30:09;4.80;;;4.60;;
14665;SDS011;7420;53.574;10.040;2023-07-13T04:32:34;4.60;;;4.40;;
14665;SDS011;7420;53.574;10.040;2023-07-13T04:35:00;4.50;;;4.30;;
14665;SDS011;7420;53.574;10.040;2023-07-13T04:37:26;4.50;;;4.30;;
14665;SDS011;7420;53.574;10.040;2023-07-13T04:39:51;4.60;;;4.40;;
14665;SDS011;7420;53.574;10.040;2023-07-13T04:42:17;4.50;;;4.30;;
14665;SDS011;7420;53.574;10.040;2023-07-13T04:44:49;4.70;;;4.50;;
14665;SDS011;7420;53.574;10.040;2023-07-13T04:47:16;4.65;;;4.45;;
14665;SDS011;7420;53.574;10.040;2023-07-13T04:49:41;4.60;;;4.40;;
14665;SDS011;7420;53.574;10.040;2023-07-13T04:52:07;4.60;;;4.40;;
14665;SDS011;7420;53.574;10.040;2023-07-13T04:54:33;4.68;;;4.47;;
14665;SDS011;7420;53.574;10.040;2023-07-13T04:56:59;4.30;;;4.10;;
14665;SDS011;7420;53.574;10.040;2023-07-13T04:59:24;4.55;;;4.35;;
14665;SDS011;7420;53.574;10.040;2023-07-13T05:01:50;4.30;;;4.10;;
14665;SDS011;7420;53.574;10.040;2023-07-13T05:04:15;4.30;;;4.10;;
14665;SDS011;7420;53.574;10.040;2023-07-13T05:06:40;4.60;;;4.40;;
14665;SDS011;7420;53.574;10.040;2023-07-13T05:09:06;4.50;;;4.30;;
14665;SDS011;7420;53.574;10.040;2023-07-13T05:11:32;4.40;;;4.20;;
14665;SDS011;7420;53.574;10.040;2023-07-13T05:13:58;4.30;;;4.10;;
14665;SDS011;7420;53.574;10.040;2023-07-13T05:16:23;4.45;;;4.25;;
14665;SDS011;7420;53.574;10.040;2023-07-13T05:18:48;4.30;;;4.10;;
14665;SDS011;7420;53.574;10.040;2023-07-13T05:21:14;4.50;;;4.30;;
14665;SDS011;7420;53.574;10.040;2023-07-13T05:23:39;4.30;;;4.10;;
14665;SDS011;7420;53.574;10.040;2023-07-13T05:26:06;4.30;;;4.10;;
14665;SDS011;7420;53.574;10.040;2023-07-13T05:28:32;4.50;;;4.30;;
14665;SDS011;7420;53.574;10.040;2023-07-13T05:31:17;4.70;;;4.50;;
14665;SDS011;7420;53.574;10.040;2023-07-13T05:33:43;4.47;;;4.28;;
14665;SDS011;7420;53.574;10.040;2023-07-13T05:36:08;4.30;;;4.10;;
14665;SDS011;7420;53.574;10.040;2023-07-13T05:38:34;4.70;;;4.50;;
14665;SDS011;7420;53.574;10.040;2023-07-13T05:40:59;4.30;;;4.10;;
14665;SDS011;7420;53.574;10.040;2023-07-13T05:43:25;4.60;;;4.40;;
14665;SDS011;7420;53.574;10.040;2023-07-13T05:45:54;4.70;;;4.50;;
14665;SDS011;7420;53.574;10.040;2023-07-13T05:48:20;4.40;;;4.20;;
14665;SDS011;7420;53.574;10.040;2023-07-13T05:50:46;4.50;;;4.30;;
14665;SDS011;7420;53.574;10.040;2023-07-13T05:53:12;4.40;;;4.20;;
14665;SDS011;7420;53.574;10.040;2023-07-13T05:55:41;4.47;;;4.28;;
14665;SDS011;7420;53.574;10.040;2023-07-13T05:58:07;4.43;;;4.22;;
14665;SDS011;7420;53.574;10.040;2023-07-13T06:00:33;4.40;;;4.20;;
14665;SDS011;7420;53.574;10.040;2023-07-13T06:02:58;4.80;;;4.60;;
14665;SDS011;7420;53.574;10.040;2023-07-13T06:05:24;4.40;;;4.20;;
14665;SDS011;7420;53.574;10.040;2023-07-13T06:07:49;4.60;;;4.40;;
14665;SDS011;7420;53.574;10.040;2023-07-13T06:10:14;4.50;;;4.30;;
14665;SDS011;7420;53.574;10.040;2023-07-13T06:12:40;4.45;;;4.25;;
14665;SDS011;7420;53.574;10.040;2023-07-13T06:15:05;4.40;;;4.20;;
14665;SDS011;7420;53.574;10.040;2023-07-13T06:17:31;4.30;;;4.10;;
14665;SDS011;7420;53.574;10.040;2023-07-13T06:19:56;4.30;;;4.10;;
14665;SDS011;7420;53.574;10.040;2023-07-13T06:22:22;4.60;;;4.40;;
14665;SDS011;7420;53.574;10.040;2023-07-13T06:24:47;4.60;;;4.40;;
14665;SDS011;7420;53.574;10.040;2023-07-13T06:27:12;4.40;;;4.20;;
14665;SDS011;7420;53.574;10.040;2023-07-13T06:29:38;4.30;;;4.10;;
14665;SDS011;7420;53.574;10.040;2023-07-13T06:32:04;4.68;;;4.47;;
14665;SDS011;7420;53.574;10.040;2023-07-13T06:34:30;4.30;;;4.10;;
14665;SDS011;7420;53.574;10.040;2023-07-13T06:36:55;4.40;;;4.20;;
14665;SDS011;7420;53.574;10.040;2023-07-13T06:39:21;4.32;;;4.13;;
14665;SDS011;7420;53.574;10.040;2023-07-13T06:41:46;4.20;;;4.00;;
14665;SDS011;7420;53.574;10.040;2023-07-13T06:44:11;4.20;;;4.00;;
14665;SDS011;7420;53.574;10.040;2023-07-13T06:46:37;4.30;;;4.10;;
14665;SDS011;7420;53.574;10.040;2023-07-13T06:49:02;4.20;;;4.00;;
14665;SDS011;7420;53.574;10.040;2023-07-13T06:51:27;4.20;;;4.00;;
14665;SDS011;7420;53.574;10.040;2023-07-13T06:53:53;4.50;;;4.30;;
14665;SDS011;7420;53.574;10.040;2023-07-13T06:56:19;4.20;;;4.00;;
14665;SDS011;7420;53.574;10.040;2023-07-13T06:58:44;4.20;;;4.00;;
14665;SDS011;7420;53.574;10.040;2023-07-13T07:01:10;4.45;;;4.25;;
14665;SDS011;7420;53.574;10.040;2023-07-13T07:03:35;4.30;;;4.10;;
14665;SDS011;7420;53.574;10.040;2023-07-13T07:06:14;4.43;;;4.22;;
14665;SDS011;7420;53.574;10.040;2023-07-13T07:08:41;4.20;;;4.00;;
14665;SDS011;7420;53.574;10.040;2023-07-13T07:11:14;4.50;;;4.30;;
14665;SDS011;7420;53.574;10.040;2023-07-13T07:13:42;4.32;;;4.13;;
14665;SDS011;7420;53.574;10.040;2023-07-13T07:16:07;4.40;;;4.20;;
14665;SDS011;7420;53.574;10.040;2023-07-13T07:18:33;4.38;;;4.18;;
14665;SDS011;7420;53.574;10.040;2023-07-13T07:20:59;4.47;;;4.28;;
14665;SDS011;7420;53.574;10.040;2023-07-13T07:23:25;4.50;;;4.30;;
14665;SDS011;7420;53.574;10.040;2023-07-13T07:25:50;4.30;;;4.10;;
14665;SDS011;7420;53.574;10.040;2023-07-13T07:28:16;4.30;;;4.10;;
14665;SDS011;7420;53.574;10.040;2023-07-13T07:30:46;4.30;;;4.10;;
14665;SDS011;7420;53.574;10.040;2023-07-13T07:33:12;4.40;;;4.20;;
14665;SDS011;7420;53.574;10.040;2023-07-13T07:35:38;4.30;;;4.10;;
14665;SDS011;7420;53.574;10.040;2023-07-13T07:38:03;4.10;;;4.00;;
14665;SDS011;7420;53.574;10.040;2023-07-13T07:40:29;3.92;;;3.83;;
14665;SDS011;7420;53.574;10.040;2023-07-13T07:42:54;4.30;;;4.10;;
14665;SDS011;7420;53.574;10.040;2023-07-13T07:45:20;4.40;;;4.20;;
14665;SDS011;7420;53.574;10.040;2023-07-13T07:47:46;4.07;;;3.95;;
14665;SDS011;7420;53.574;10.040;2023-07-13T07:50:12;4.30;;;4.10;;
14665;SDS011;7420;53.574;10.040;2023-07-13T07:52:38;4.22;;;4.07;;
14665;SDS011;7420;53.574;10.040;2023-07-13T07:55:04;4.18;;;4.03;;
14665;SDS011;7420;53.574;10.040;2023-07-13T07:57:31;4.00;;;3.90;;
14665;SDS011;7420;53.574;10.040;2023-07-13T07:59:56;3.90;;;3.80;;
14665;SDS011;7420;53.574;10.040;2023-07-13T08:02:22;4.30;;;4.10;;
14665;SDS011;7420;53.574;10.040;2023-07-13T08:04:47;4.30;;;4.10;;
14665;SDS011;7420;53.574;10.040;2023-07-13T08:07:12;4.10;;;4.00;;
14665;SDS011;7420;53.574;10.040;2023-07-13T08:09:38;4.07;;;3.97;;
14665;SDS011;7420;53.574;10.040;2023-07-13T08:12:03;4.10;;;4.00;;
14665;SDS011;7420;53.574;10.040;2023-07-13T08:14:29;4.00;;;3.90;;
14665;SDS011;7420;53.574;10.040;2023-07-13T08:16:54;4.00;;;3.90;;
14665;SDS011;7420;53.574;10.040;2023-07-13T08:19:20;4.07;;;3.92;;
14665;SDS011;7420;53.574;10.040;2023-07-13T08:21:45;3.90;;;3.80;;
14665;SDS011;7420;53.574;10.040;2023-07-13T08:24:13;3.90;;;3.80;;
14665;SDS011;7420;53.574;10.040;2023-07-13T08:26:38;3.95;;;3.85;;
14665;SDS011;7420;53.574;10.040;2023-07-13T08:29:04;3.80;;;3.70;;
14665;SDS011;7420;53.574;10.040;2023-07-13T08:31:29;3.80;;;3.70;;
14665;SDS011;7420;53.574;10.040;2023-07-13T08:33:55;3.95;;;3.85;;
14665;SDS011;7420;53.574;10.040;2023-07-13T08:36:20;3.80;;;3.70;;
14665;SDS011;7420;53.574;10.040;2023-07-13T08:38:46;3.88;;;3.78;;
14665;SDS011;7420;53.574;10.040;2023-07-13T08:41:16;3.80;;;3.70;;
14665;SDS011;7420;53.574;10.040;2023-07-13T08:43:45;4.05;;;3.95;;
14665;SDS011;7420;53.574;10.040;2023-07-13T08:48:56;3.80;;;3.70;;
14665;SDS011;7420;53.574;10.040;2023-07-13T08:57:09;4.07;;;3.92;;
14665;SDS011;7420;53.574;10.040;2023-07-13T08:59:38;3.90;;;3.80;;
14665;SDS011;7420;53.574;10.040;2023-07-13T09:04:56;3.95;;;3.85;;
14665;SDS011;7420;53.574;10.040;2023-07-13T09:15:51;3.80;;;3.70;;
14665;SDS011;7420;53.574;10.040;2023-07-13T09:23:37;3.97;;;3.88;;
14665;SDS011;7420;53.574;10.040;2023-07-13T09:26:05;3.80;;;3.70;;
14665;SDS011;7420;53.574;10.040;2023-07-13T09:28:43;3.80;;;3.70;;
14665;SDS011;7420;53.574;10.040;2023-07-13T09:31:11;4.05;;;3.95;;
14665;SDS011;7420;53.574;10.040;2023-07-13T09:33:48;3.90;;;3.80;;
14665;SDS011;7420;53.574;10.040;2023-07-13T09:36:32;3.80;;;3.70;;
14665;SDS011;7420;53.574;10.040;2023-07-13T09:44:58;3.70;;;3.60;;
14665;SDS011;7420;53.574;10.040;2023-07-13T09:47:28;4.00;;;3.90;;
14665;SDS011;7420;53.574;10.040;2023-07-13T09:49:55;3.80;;;3.70;;
14665;SDS011;7420;53.574;10.040;2023-07-13T09:52:21;3.70;;;3.60;;
14665;SDS011;7420;53.574;10.040;2023-07-13T09:54:48;3.78;;;3.67;;
14665;SDS011;7420;53.574;10.040;2023-07-13T09:57:16;3.90;;;3.80;;
14665;SDS011;7420;53.574;10.040;2023-07-13T09:59:44;3.90;;;3.80;;
14665;SDS011;7420;53.574;10.040;2023-07-13T10:02:31;3.70;;;3.60;;
14665;SDS011;7420;53.574;10.040;2023-07-13T10:04:59;3.90;;;3.80;;
14665;SDS011;7420;53.574;10.040;2023-07-13T10:07:39;3.85;;;3.75;;
14665;SDS011;7420;53.574;10.040;2023-07-13T10:10:16;3.80;;;3.70;;
14665;SDS011;7420;53.574;10.040;2023-07-13T10:12:45;3.70;;;3.60;;
14665;SDS011;7420;53.574;10.040;2023-07-13T10:15:15;3.83;;;3.72;;
14665;SDS011;7420;53.574;10.040;2023-07-13T10:17:49;4.03;;;3.92;;
14665;SDS011;7420;53.574;10.040;2023-07-13T10:20:15;3.78;;;3.67;;
14665;SDS011;7420;53.574;10.040;2023-07-13T10:25:16;3.80;;;3.70;;
14665;SDS011;7420;53.574;10.040;2023-07-13T10:27:47;3.70;;;3.60;;
14665;SDS011;7420;53.574;10.040;2023-07-13T10:30:17;3.70;;;3.60;;
14665;SDS011;7420;53.574;10.040;2023-07-13T10:32:45;3.60;;;3.50;;
14665;SDS011;7420;53.574;10.040;2023-07-13T10:35:13;3.60;;;3.50;;
14665;SDS011;7420;53.574;10.040;2023-07-13T10:40:39;3.60;;;3.50;;
14665;SDS011;7420;53.574;10.040;2023-07-13T10:43:20;3.70;;;3.60;;
14665;SDS011;7420;53.574;10.040;2023-07-13T10:45:50;3.60;;;3.50;;
14665;SDS011;7420;53.574;10.040;2023-07-13T10:48:16;3.60;;;3.50;;
14665;SDS011;7420;53.574;10.040;2023-07-13T10:50:43;3.60;;;3.50;;
14665;SDS011;7420;53.574;10.040;2023-07-13T10:53:18;3.50;;;3.40;;
14665;SDS011;7420;53.574;10.040;2023-07-13T10:58:18;3.60;;;3.50;;
14665;SDS011;7420;53.574;10.040;2023-07-13T11:01:09;3.60;;;3.50;;
14665;SDS011;7420;53.574;10.040;2023-07-13T11:06:12;3.60;;;3.50;;
14665;SDS011;7420;53.574;10.040;2023-07-13T11:18:44;3.60;;;3.50;;
14665;SDS011;7420;53.574;10.040;2023-07-13T11:21:20;3.50;;;3.40;;
14665;SDS011;7420;53.574;10.040;2023-07-13T11:23:54;3.50;;;3.40;;
14665;SDS011;7420;53.574;10.040;2023-07-13T11:32:19;3.53;;;3.42;;
14665;SDS011;7420;53.574;10.040;2023-07-13T11:34:48;3.65;;;3.55;;
14665;SDS011;7420;53.574;10.040;2023-07-13T11:37:15;3.60;;;3.50;;
14665;SDS011;7420;53.574;10.040;2023-07-13T11:39:43;3.60;;;3.50;;
14665;SDS011;7420;53.574;10.040;2023-07-13T11:42:15;3.50;;;3.40;;
14665;SDS011;7420;53.574;10.040;2023-07-13T11:44:42;3.50;;;3.40;;
14665;SDS011;7420;53.574;10.040;2023-07-13T11:47:11;3.58;;;3.47;;
14665;SDS011;7420;53.574;10.040;2023-07-13T11:49:43;3.60;;;3.50;;
14665;SDS011;7420;53.574;10.040;2023-07-13T11:52:13;3.50;;;3.40;;
14665;SDS011;7420;53.574;10.040;2023-07-13T11:54:48;3.60;;;3.50;;
14665;SDS011;7420;53.574;10.040;2023-07-13T11:57:28;3.50;;;3.40;;
14665;SDS011;7420;53.574;10.040;2023-07-13T11:59:59;3.50;;;3.40;;
14665;SDS011;7420;53.574;10.040;2023-07-13T12:02:34;3.50;;;3.40;;
14665;SDS011;7420;53.574;10.040;2023-07-13T12:05:03;3.63;;;3.53;;
14665;SDS011;7420;53.574;10.040;2023-07-13T12:07:30;3.80;;;3.70;;
14665;SDS011;7420;53.574;10.040;2023-07-13T12:12:47;3.70;;;3.60;;
14665;SDS011;7420;53.574;10.040;2023-07-13T12:15:18;3.85;;;3.75;;
14665;SDS011;7420;53.574;10.040;2023-07-13T12:17:45;3.80;;;3.70;;
14665;SDS011;7420;53.574;10.040;2023-07-13T12:20:17;3.90;;;3.80;;
14665;SDS011;7420;53.574;10.040;2023-07-13T12:22:47;3.90;;;3.80;;
14665;SDS011;7420;53.574;10.040;2023-07-13T12:25:15;3.90;;;3.80;;
14665;SDS011;7420;53.574;10.040;2023-07-13T12:27:40;3.80;;;3.70;;
14665;SDS011;7420;53.574;10.040;2023-07-13T12:30:21;4.30;;;4.10;;
14665;SDS011;7420;53.574;10.040;2023-07-13T12:33:01;4.00;;;3.90;;
14665;SDS011;7420;53.574;10.040;2023-07-13T12:35:38;4.20;;;4.00;;
14665;SDS011;7420;53.574;10.040;2023-07-13T12:38:08;4.27;;;4.07;;
14665;SDS011;7420;53.574;10.040;2023-07-13T12:40:35;4.20;;;4.00;;
14665;SDS011;7420;53.574;10.040;2023-07-13T12:43:02;4.00;;;3.90;;
14665;SDS011;7420;53.574;10.040;2023-07-13T12:45:29;4.30;;;4.10;;
14665;SDS011;7420;53.574;10.040;2023-07-13T12:47:56;4.00;;;3.90;;
14665;SDS011;7420;53.574;10.040;2023-07-13T12:50:28;4.15;;;3.95;;
14665;SDS011;7420;53.574;10.040;2023-07-13T12:53:15;4.00;;;3.90;;
14665;SDS011;7420;53.574;10.040;2023-07-13T12:55:44;4.28;;;4.07;;
14665;SDS011;7420;53.574;10.040;2023-07-13T12:58:19;3.95;;;3.85;;
14665;SDS011;7420;53.574;10.040;2023-07-13T13:01:11;4.30;;;4.10;;
14665;SDS011;7420;53.574;10.040;2023-07-13T13:03:39;4.28;;;4.07;;
14665;SDS011;7420;53.574;10.040;2023-07-13T13:08:41;4.13;;;4.00;;
14665;SDS011;7420;53.574;10.040;2023-07-13T13:11:08;4.00;;;3.90;;
14665;SDS011;7420;53.574;10.040;2023-07-13T13:13:34;4.18;;;4.00;;
14665;SDS011;7420;53.574;10.040;2023-07-13T13:18:42;4.00;;;3.90;;
14665;SDS011;7420;53.574;10.040;2023-07-13T13:21:08;3.97;;;3.88;;
14665;SDS011;7420;53.574;10.040;2023-07-13T13:23:34;4.20;;;4.00;;
14665;SDS011;7420;53.574;10.040;2023-07-13T13:26:00;4.10;;;4.00;;
14665;SDS011;7420;53.574;10.040;2023-07-13T13:28:26;4.32;;;4.13;;
14665;SDS011;7420;53.574;10.040;2023-07-13T13:30:51;4.10;;;4.00;;
14665;SDS011;7420;53.574;10.040;2023-07-13T13:33:18;4.00;;;3.90;;
14665;SDS011;7420;53.574;10.040;2023-07-13T13:35:44;4.00;;;3.90;;
14665;SDS011;7420;53.574;10.040;2023-07-13T13:38:18;4.00;;;3.90;;
14665;SDS011;7420;53.574;10.040;2023-07-13T13:40:46;4.30;;;4.10;;
14665;SDS011;7420;53.574;10.040;2023-07-13T13:43:18;4.00;;;3.90;;
14665;SDS011;7420;53.574;10.040;2023-07-13T13:45:51;4.20;;;4.00;;
14665;SDS011;7420;53.574;10.040;2023-07-13T13:48:17;4.07;;;3.97;;
14665;SDS011;7420;53.574;10.040;2023-07-13T13:50:45;4.10;;;4.00;;
14665;SDS011;7420;53.574;10.040;2023-07-13T13:53:12;4.20;;;4.00;;
14665;SDS011;7420;53.574;10.040;2023-07-13T13:55:39;4.00;;;3.90;;
14665;SDS011;7420;53.574;10.040;2023-07-13T13:58:07;4.13;;;3.97;;
14665;SDS011;7420;53.574;10.040;2023-07-13T14:00:36;4.20;;;4.00;;
14665;SDS011;7420;53.574;10.040;2023-07-13T14:03:02;4.50;;;4.30;;
14665;SDS011;7420;53.574;10.040;2023-07-13T14:05:28;4.30;;;4.10;;
14665;SDS011;7420;53.574;10.040;2023-07-13T14:07:55;4.20;;;4.00;;
14665;SDS011;7420;53.574;10.040;2023-07-13T14:10:41;4.07;;;3.97;;
14665;SDS011;7420;53.574;10.040;2023-07-13T14:13:15;4.20;;;4.00;;
14665;SDS011;7420;53.574;10.040;2023-07-13T14:15:44;4.00;;;3.90;;
14665;SDS011;7420;53.574;10.040;2023-07-13T14:18:10;3.90;;;3.80;;
14665;SDS011;7420;53.574;10.040;2023-07-13T14:20:35;3.92;;;3.83;;
14665;SDS011;7420;53.574;10.040;2023-07-13T14:23:00;3.60;;;3.50;;
14665;SDS011;7420;53.574;10.040;2023-07-13T14:25:26;3.80;;;3.70;;
14665;SDS011;7420;53.574;10.040;2023-07-13T14:27:53;4.00;;;3.90;;
14665;SDS011;7420;53.574;10.040;2023-07-13T14:30:24;3.80;;;3.70;;
14665;SDS011;7420;53.574;10.040;2023-07-13T14:32:49;3.90;;;3.80;;
14665;SDS011;7420;53.574;10.040;2023-07-13T14:35:16;3.90;;;3.80;;
14665;SDS011;7420;53.574;10.040;2023-07-13T14:37:43;3.90;;;3.80;;
14665;SDS011;7420;53.574;10.040;2023-07-13T14:40:16;4.00;;;3.90;;
14665;SDS011;7420;53.574;10.040;2023-07-13T14:42:43;3.70;;;3.60;;
14665;SDS011;7420;53.574;10.040;2023-07-13T14:45:15;3.70;;;3.60;;
14665;SDS011;7420;53.574;10.040;2023-07-13T14:47:42;3.70;;;3.60;;
14665;SDS011;7420;53.574;10.040;2023-07-13T14:50:12;3.70;;;3.60;;
14665;SDS011;7420;53.574;10.040;2023-07-13T14:52:43;3.65;;;3.55;;
14665;SDS011;7420;53.574;10.040;2023-07-13T14:55:10;3.80;;;3.70;;
14665;SDS011;7420;53.574;10.040;2023-07-13T14:57:37;3.90;;;3.80;;
14665;SDS011;7420;53.574;10.040;2023-07-13T15:00:03;3.90;;;3.80;;
14665;SDS011;7420;53.574;10.040;2023-07-13T15:02:31;3.90;;;3.80;;
14665;SDS011;7420;53.574;10.040;2023-07-13T15:04:59;3.83;;;3.72;;
14665;SDS011;7420;53.574;10.040;2023-07-13T15:07:26;3.70;;;3.60;;
14665;SDS011;7420;53.574;10.040;2023-07-13T15:09:51;4.03;;;3.92;;
14665;SDS011;7420;53.574;10.040;2023-07-13T15:12:17;3.90;;;3.80;;
14665;SDS011;7420;53.574;10.040;2023-07-13T15:14:42;3.97;;;3.88;;
14665;SDS011;7420;53.574;10.040;2023-07-13T15:17:18;3.70;;;3.60;;
14665;SDS011;7420;53.574;10.040;2023-07-13T15:19:48;3.90;;;3.80;;
14665;SDS011;7420;53.574;10.040;2023-07-13T15:22:14;3.58;;;3.47;;
14665;SDS011;7420;53.574;10.040;2023-07-13T15:24:40;3.90;;;3.80;;
14665;SDS011;7420;53.574;10.040;2023-07-13T15:27:08;3.90;;;3.80;;
14665;SDS011;7420;53.574;10.040;2023-07-13T15:29:36;3.60;;;3.50;;
14665;SDS011;7420;53.574;10.040;2023-07-13T15:32:02;3.70;;;3.60;;
14665;SDS011;7420;53.574;10.040;2023-07-13T15:34:27;3.60;;;3.50;;
14665;SDS011;7420;53.574;10.040;2023-07-13T15:36:52;3.90;;;3.80;;
14665;SDS011;7420;53.574;10.040;2023-07-13T15:39:18;3.90;;;3.80;;
14665;SDS011;7420;53.574;10.040;2023-07-13T15:41:43;3.70;;;3.60;;
14665;SDS011;7420;53.574;10.040;2023-07-13T15:44:22;4.32;;;4.13;;
14665;SDS011;7420;53.574;10.040;2023-07-13T15:46:53;3.80;;;3.70;;
14665;SDS011;7420;53.574;10.040;2023-07-13T15:49:18;3.70;;;3.60;;
14665;SDS011;7420;53.574;10.040;2023-07-13T15:51:44;3.90;;;3.80;;
14665;SDS011;7420;53.574;10.040;2023-07-13T15:54:10;3.80;;;3.70;;
14665;SDS011;7420;53.574;10.040;2023-07-13T15:56:38;3.85;;;3.75;;
14665;SDS011;7420;53.574;10.040;2023-07-13T15:59:06;3.80;;;3.70;;
14665;SDS011;7420;53.574;10.040;2023-07-13T16:01:37;3.80;;;3.70;;